createdAt,value
2022-07-31T00:00:15.196Z,101356.72
2022-07-31T00:02:41.671Z,101356.72
2022-07-31T00:05:08.520Z,101353.84
2022-07-31T00:07:34.881Z,101355.19
2022-07-31T00:10:01.297Z,101347.41
2022-07-31T00:12:27.795Z,101348.81
2022-07-31T00:14:54.789Z,101355.22
2022-07-31T00:17:21.268Z,101349.88
2022-07-31T00:19:47.624Z,101352.38
2022-07-31T00:22:13.977Z,101355.88
2022-07-31T00:24:40.303Z,101349.97
2022-07-31T00:27:07.121Z,101348.13
2022-07-31T00:29:33.637Z,101343.06
2022-07-31T00:31:59.976Z,101352.13
2022-07-31T00:34:26.368Z,101350.59
2022-07-31T00:36:52.735Z,101356.53
2022-07-31T00:39:19.218Z,101353.13
2022-07-31T00:41:46.904Z,101349.78
2022-07-31T00:44:14.213Z,101343.09
2022-07-31T00:46:42.128Z,101348.97
2022-07-31T00:49:09.979Z,101340.31
2022-07-31T00:51:37.965Z,101339.34
2022-07-31T00:54:05.329Z,101345.28
2022-07-31T00:56:32.220Z,101340.09
2022-07-31T00:58:58.602Z,101339.31
2022-07-31T01:01:25.086Z,101340.91
2022-07-31T01:03:51.660Z,101341.28
2022-07-31T01:06:18.210Z,101346.47
2022-07-31T01:08:44.657Z,101336.78
2022-07-31T01:11:28.089Z,101337.00
2022-07-31T01:13:59.232Z,101335.97
2022-07-31T01:16:29.111Z,101329.94
2022-07-31T01:18:57.360Z,101330.91
2022-07-31T01:21:29.143Z,101333.59
2022-07-31T01:24:08.547Z,101332.56
2022-07-31T01:26:43.385Z,101331.72
2022-07-31T01:29:16.340Z,101326.59
2022-07-31T01:31:51.159Z,101328.63
2022-07-31T01:34:34.746Z,101325.22
2022-07-31T01:37:17.513Z,101329.63
2022-07-31T01:39:49.430Z,101328.16
2022-07-31T01:42:19.509Z,101324.53
2022-07-31T01:44:51.093Z,101334.09
2022-07-31T01:47:20.247Z,101327.78
2022-07-31T01:49:49.963Z,101331.31
2022-07-31T01:52:17.898Z,101335.84
2022-07-31T01:54:45.154Z,101337.53
2022-07-31T01:57:13.164Z,101326.38
2022-07-31T01:59:44.793Z,101331.75
2022-07-31T02:02:12.479Z,101329.91
2022-07-31T02:04:39.462Z,101327.47
2022-07-31T02:07:08.025Z,101332.63
2022-07-31T02:09:35.811Z,101330.22
2022-07-31T02:12:03.255Z,101330.28
2022-07-31T02:14:30.754Z,101327.56
2022-07-31T02:16:59.348Z,101324.56
2022-07-31T02:19:28.293Z,101325.53
2022-07-31T02:21:59.273Z,101330.00
2022-07-31T02:24:25.659Z,101332.81
2022-07-31T02:26:52.963Z,101324.25
2022-07-31T02:29:21.687Z,101327.75
2022-07-31T02:32:03.114Z,101326.19
2022-07-31T02:34:32.218Z,101327.13
2022-07-31T02:37:01.243Z,101325.56
2022-07-31T02:39:30.796Z,101323.88
2022-07-31T02:41:59.410Z,101322.19
2022-07-31T02:44:27.772Z,101324.91
2022-07-31T02:46:55.110Z,101316.91
2022-07-31T02:49:21.667Z,101322.19
2022-07-31T02:51:48.205Z,101311.88
2022-07-31T02:54:17.674Z,101315.69
2022-07-31T02:56:46.169Z,101319.22
2022-07-31T02:59:12.536Z,101315.72
2022-07-31T03:01:38.936Z,101315.75
2022-07-31T03:04:05.291Z,101310.56
2022-07-31T03:06:31.648Z,101302.72
2022-07-31T03:08:57.985Z,101306.31
2022-07-31T03:11:24.559Z,101299.31
2022-07-31T03:13:54.042Z,101303.72
2022-07-31T03:16:21.983Z,101301.16
2022-07-31T03:18:49.507Z,101298.56
2022-07-31T03:21:15.982Z,101300.47
2022-07-31T03:23:42.497Z,101307.59
2022-07-31T03:26:10.505Z,101300.75
2022-07-31T03:28:36.936Z,101306.75
2022-07-31T03:31:04.412Z,101305.00
2022-07-31T03:33:30.839Z,101306.75
2022-07-31T03:35:57.941Z,101302.47
2022-07-31T03:38:39.015Z,101299.88
2022-07-31T03:41:09.495Z,101290.41
2022-07-31T03:43:46.973Z,101290.75
2022-07-31T03:46:16.777Z,101295.34
2022-07-31T03:48:43.248Z,101297.88
2022-07-31T03:51:10.148Z,101296.22
2022-07-31T03:53:37.325Z,101291.06
2022-07-31T03:56:06.305Z,101287.56
2022-07-31T03:58:33.141Z,101298.16
2022-07-31T04:00:59.664Z,101294.59
2022-07-31T04:03:31.003Z,101291.03
2022-07-31T04:05:57.416Z,101291.72
2022-07-31T04:08:23.774Z,101291.59
2022-07-31T04:10:50.225Z,101293.38
2022-07-31T04:13:16.587Z,101305.59
2022-07-31T04:15:42.942Z,101298.56
2022-07-31T04:18:09.270Z,101293.47
2022-07-31T04:20:35.599Z,101294.44
2022-07-31T04:23:03.827Z,101300.50
2022-07-31T04:25:33.683Z,101293.78
2022-07-31T04:28:01.299Z,101299.94
2022-07-31T04:30:27.674Z,101303.13
2022-07-31T04:32:54.022Z,101305.50
2022-07-31T04:35:20.383Z,101304.38
2022-07-31T04:37:48.456Z,101309.34
2022-07-31T04:40:15.816Z,101312.66
2022-07-31T04:42:42.157Z,101317.03
2022-07-31T04:45:09.270Z,101313.41
2022-07-31T04:47:35.630Z,101315.09
2022-07-31T04:50:01.983Z,101320.41
2022-07-31T04:52:28.359Z,101320.44
2022-07-31T04:54:54.711Z,101319.47
2022-07-31T04:57:22.098Z,101317.16
2022-07-31T04:59:57.857Z,101319.53
2022-07-31T05:02:27.494Z,101315.63
2022-07-31T05:04:56.739Z,101309.78
2022-07-31T05:07:23.740Z,101309.66
2022-07-31T05:09:52.199Z,101307.81
2022-07-31T05:12:18.581Z,101309.53
2022-07-31T05:14:44.987Z,101306.16
2022-07-31T05:17:11.533Z,101307.56
2022-07-31T05:19:38.075Z,101303.88
2022-07-31T05:22:05.359Z,101296.47
2022-07-31T05:24:32.784Z,101300.13
2022-07-31T05:27:04.171Z,101296.94
2022-07-31T05:29:31.808Z,101292.63
2022-07-31T05:31:59.760Z,101292.84
2022-07-31T05:34:30.047Z,101290.59
2022-07-31T05:36:59.035Z,101283.84
2022-07-31T05:39:25.441Z,101286.63
2022-07-31T05:41:52.609Z,101290.44
2022-07-31T05:44:18.962Z,101292.28
2022-07-31T05:46:45.408Z,101279.28
2022-07-31T05:49:11.881Z,101279.88
2022-07-31T05:51:38.319Z,101277.25
2022-07-31T05:54:04.762Z,101279.88
2022-07-31T05:56:31.090Z,101274.75
2022-07-31T05:58:57.414Z,101273.59
2022-07-31T06:01:24.013Z,101273.41
2022-07-31T06:03:52.106Z,101268.13
2022-07-31T06:06:19.399Z,101262.69
2022-07-31T06:08:45.754Z,101265.97
2022-07-31T06:11:12.128Z,101276.09
2022-07-31T06:13:38.749Z,101272.16
2022-07-31T06:16:11.959Z,101276.84
2022-07-31T06:18:38.403Z,101273.97
2022-07-31T06:21:04.739Z,101277.63
2022-07-31T06:23:32.228Z,101282.06
2022-07-31T06:25:58.863Z,101288.31
2022-07-31T06:28:27.290Z,101280.66
2022-07-31T06:31:22.390Z,101275.31
2022-07-31T06:33:50.043Z,101274.88
2022-07-31T06:36:18.392Z,101277.31
2022-07-31T06:38:45.801Z,101277.44
2022-07-31T06:41:32.240Z,101276.34
2022-07-31T06:43:58.600Z,101271.50
2022-07-31T06:46:24.943Z,101277.91
2022-07-31T06:48:51.338Z,101269.84
2022-07-31T06:51:32.991Z,101268.19
2022-07-31T06:54:00.337Z,101262.78
2022-07-31T06:56:26.801Z,101253.06
2022-07-31T06:58:53.330Z,101253.03
2022-07-31T07:01:19.713Z,101255.81
2022-07-31T07:03:46.679Z,101258.03
2022-07-31T07:06:13.206Z,101254.06
2022-07-31T07:08:42.317Z,101249.97
2022-07-31T07:11:12.172Z,101252.91
2022-07-31T07:13:45.104Z,101249.00
2022-07-31T07:16:13.487Z,101249.53
2022-07-31T07:18:39.887Z,101258.66
2022-07-31T07:21:06.256Z,101255.97
2022-07-31T07:23:33.569Z,101249.63
2022-07-31T07:25:59.940Z,101246.97
2022-07-31T07:28:30.680Z,101247.31
2022-07-31T07:30:57.736Z,101240.47
2022-07-31T07:33:41.604Z,101238.97
2022-07-31T07:36:22.220Z,101233.13
2022-07-31T07:38:51.548Z,101225.50
2022-07-31T07:41:18.510Z,101229.94
2022-07-31T07:43:45.109Z,101222.25
2022-07-31T07:46:17.879Z,101223.16
2022-07-31T07:48:44.294Z,101223.28
2022-07-31T07:51:10.662Z,101217.13
2022-07-31T07:53:37.449Z,101225.78
2022-07-31T07:56:04.027Z,101212.97
2022-07-31T07:58:30.423Z,101216.19
2022-07-31T08:00:56.848Z,101212.44
2022-07-31T08:03:48.815Z,101210.56
2022-07-31T08:06:10.066Z,101203.25
2022-07-31T08:08:36.509Z,101205.16
2022-07-31T08:11:04.699Z,101208.94
2022-07-31T08:13:31.180Z,101210.16
2022-07-31T08:15:57.609Z,101209.41
2022-07-31T08:18:28.419Z,101218.19
2022-07-31T08:20:55.361Z,101218.03
2022-07-31T08:23:21.774Z,101216.41
2022-07-31T08:25:48.119Z,101217.03
2022-07-31T08:28:19.559Z,101224.44
2022-07-31T08:30:50.536Z,101229.63
2022-07-31T08:33:16.970Z,101224.75
2022-07-31T08:35:44.792Z,101226.09
2022-07-31T08:38:18.453Z,101229.72
2022-07-31T08:40:45.844Z,101226.84
2022-07-31T08:44:02.573Z,101231.47
2022-07-31T08:46:02.688Z,101231.59
2022-07-31T08:48:32.521Z,101232.13
2022-07-31T08:51:01.780Z,101227.97
2022-07-31T08:53:30.364Z,101227.91
2022-07-31T08:55:57.877Z,101221.44
2022-07-31T08:58:24.556Z,101222.13
2022-07-31T09:00:51.499Z,101211.03
2022-07-31T09:03:18.126Z,101218.81
2022-07-31T09:05:44.551Z,101217.47
2022-07-31T09:08:14.550Z,101215.38
2022-07-31T09:10:43.958Z,101221.72
2022-07-31T09:13:17.766Z,101220.78
2022-07-31T09:15:44.655Z,101223.09
2022-07-31T09:18:21.851Z,101230.44
2022-07-31T09:20:57.932Z,101220.00
2022-07-31T09:23:26.416Z,101217.28
2022-07-31T09:26:00.155Z,101218.31
2022-07-31T09:28:36.032Z,101210.63
2022-07-31T09:31:04.322Z,101207.78
2022-07-31T09:33:31.488Z,101207.88
2022-07-31T09:35:59.692Z,101203.09
2022-07-31T09:38:38.899Z,101201.72
2022-07-31T09:41:53.494Z,101197.88
2022-07-31T09:44:10.126Z,101183.63
2022-07-31T09:46:45.297Z,101192.56
2022-07-31T09:49:12.223Z,101190.03
2022-07-31T09:51:43.486Z,101185.22
2022-07-31T09:54:27.478Z,101186.78
2022-07-31T09:56:54.048Z,101189.53
2022-07-31T09:59:20.427Z,101188.75
2022-07-31T10:01:51.129Z,101185.63
2022-07-31T10:04:19.896Z,101186.28
2022-07-31T10:06:51.419Z,101180.88
2022-07-31T10:09:20.266Z,101174.44
2022-07-31T10:11:49.601Z,101181.75
2022-07-31T10:14:23.913Z,101175.00
2022-07-31T10:16:56.133Z,101174.84
2022-07-31T10:19:23.569Z,101169.00
2022-07-31T10:21:56.475Z,101161.91
2022-07-31T10:24:28.295Z,101169.16
2022-07-31T10:27:01.123Z,101158.13
2022-07-31T10:29:40.563Z,101160.97
2022-07-31T10:32:08.342Z,101158.06
2022-07-31T10:34:35.795Z,101160.75
2022-07-31T10:37:11.093Z,101152.31
2022-07-31T10:39:44.154Z,101144.53
2022-07-31T10:42:22.754Z,101141.59
2022-07-31T10:44:58.149Z,101140.66
2022-07-31T10:47:26.051Z,101138.44
2022-07-31T10:49:52.414Z,101142.09
2022-07-31T10:52:30.088Z,101132.97
2022-07-31T10:54:59.391Z,101130.94
2022-07-31T10:57:30.544Z,101138.59
2022-07-31T11:00:07.757Z,101119.59
2022-07-31T11:02:35.429Z,101127.28
2022-07-31T11:05:22.801Z,101129.25
2022-07-31T11:08:07.559Z,101137.84
2022-07-31T11:10:34.406Z,101126.69
2022-07-31T11:13:05.090Z,101124.22
2022-07-31T11:15:31.997Z,101125.38
2022-07-31T11:18:23.629Z,101118.97
2022-07-31T11:20:48.492Z,101114.19
2022-07-31T11:23:17.625Z,101108.41
2022-07-31T11:25:46.175Z,101104.00
2022-07-31T11:28:24.416Z,101098.84
2022-07-31T11:30:53.051Z,101097.31
2022-07-31T11:33:41.536Z,101099.53
2022-07-31T11:36:20.788Z,101097.88
2022-07-31T11:38:49.822Z,101090.34
2022-07-31T11:41:17.323Z,101091.31
2022-07-31T11:43:51.561Z,101094.38
2022-07-31T11:46:29.043Z,101084.50
2022-07-31T11:48:56.940Z,101081.50
2022-07-31T11:51:24.836Z,101079.69
2022-07-31T11:53:57.449Z,101080.94
2022-07-31T11:56:26.776Z,101080.13
2022-07-31T11:58:55.822Z,101073.84
2022-07-31T12:01:27.658Z,101068.63
2022-07-31T12:03:54.898Z,101069.16
2022-07-31T12:06:21.988Z,101060.28
2022-07-31T12:08:49.820Z,101063.75
2022-07-31T12:11:19.005Z,101064.31
2022-07-31T12:13:49.180Z,101054.94
2022-07-31T12:16:16.933Z,101051.72
2022-07-31T12:18:52.241Z,101044.97
2022-07-31T12:21:20.017Z,101044.59
2022-07-31T12:23:51.702Z,101037.44
2022-07-31T12:26:26.292Z,101028.19
2022-07-31T12:29:08.833Z,101027.25
2022-07-31T12:31:52.487Z,101025.16
2022-07-31T12:34:45.463Z,101004.69
2022-07-31T12:37:12.637Z,101005.53
2022-07-31T12:39:59.489Z,101009.28
2022-07-31T12:42:30.708Z,101009.53
2022-07-31T12:45:18.270Z,101000.06
2022-07-31T12:47:52.231Z,100991.28
2022-07-31T12:50:22.896Z,100989.97
2022-07-31T12:52:49.358Z,100988.97
2022-07-31T12:55:17.182Z,100986.25
2022-07-31T12:57:50.434Z,100985.56
2022-07-31T13:00:18.379Z,100981.81
2022-07-31T13:02:45.185Z,100986.09
2022-07-31T13:05:11.784Z,100982.72
2022-07-31T13:07:38.151Z,100978.78
2022-07-31T13:10:14.856Z,100979.88
2022-07-31T13:12:42.358Z,100975.81
2022-07-31T13:15:09.586Z,100972.66
2022-07-31T13:17:35.926Z,100972.22
2022-07-31T13:20:02.397Z,100966.09
2022-07-31T13:22:28.806Z,100954.69
2022-07-31T13:24:55.273Z,100961.34
2022-07-31T13:27:21.718Z,100954.00
2022-07-31T13:29:48.200Z,100952.50
2022-07-31T13:32:14.729Z,100951.31
2022-07-31T13:34:41.115Z,100947.69
2022-07-31T13:37:07.727Z,100943.09
2022-07-31T13:39:34.199Z,100941.56
2022-07-31T13:42:00.580Z,100940.97
2022-07-31T13:44:26.963Z,100942.13
2022-07-31T13:46:53.371Z,100937.19
2022-07-31T13:49:20.335Z,100940.47
2022-07-31T13:51:46.763Z,100931.78
2022-07-31T13:54:13.300Z,100929.88
2022-07-31T13:56:42.711Z,100931.13
2022-07-31T13:59:11.347Z,100927.72
2022-07-31T14:02:03.580Z,100926.44
2022-07-31T14:04:24.960Z,100917.97
2022-07-31T14:06:51.793Z,100914.03
2022-07-31T14:09:19.032Z,100914.09
2022-07-31T14:11:46.094Z,100911.44
2022-07-31T14:14:15.020Z,100917.00
2022-07-31T14:16:48.758Z,100914.91
2022-07-31T14:19:15.130Z,100916.59
2022-07-31T14:21:41.523Z,100917.69
2022-07-31T14:24:23.106Z,100920.97
2022-07-31T14:26:49.462Z,100920.72
2022-07-31T14:29:15.806Z,100917.63
2022-07-31T14:31:42.187Z,100913.06
2022-07-31T14:34:08.524Z,100911.88
2022-07-31T14:36:34.965Z,100909.31
2022-07-31T14:39:02.443Z,100911.19
2022-07-31T14:41:28.831Z,100913.34
2022-07-31T14:43:55.181Z,100913.06
2022-07-31T14:46:21.529Z,100908.47
2022-07-31T14:48:47.874Z,100910.19
2022-07-31T14:51:18.741Z,100905.47
2022-07-31T14:53:46.074Z,100908.53
2022-07-31T14:56:12.458Z,100918.81
2022-07-31T14:58:58.504Z,100922.13
2022-07-31T15:01:30.445Z,100920.38
2022-07-31T15:03:57.746Z,100920.13
2022-07-31T15:06:51.098Z,100914.72
2022-07-31T15:09:10.480Z,100918.13
2022-07-31T15:11:59.338Z,100923.88
2022-07-31T15:14:23.678Z,100923.13
2022-07-31T15:16:50.419Z,100926.78
2022-07-31T15:19:16.799Z,100925.59
2022-07-31T15:22:10.685Z,100930.81
2022-07-31T15:24:33.077Z,100935.69
2022-07-31T15:26:59.456Z,100935.66
2022-07-31T15:29:25.913Z,100936.47
2022-07-31T15:32:12.282Z,100937.06
2022-07-31T15:34:38.682Z,100941.38
2022-07-31T15:37:05.397Z,100940.38
2022-07-31T15:39:32.093Z,100950.53
2022-07-31T15:41:58.406Z,100956.31
2022-07-31T15:44:25.132Z,100964.16
2022-07-31T15:46:51.593Z,100971.06
2022-07-31T15:49:18.026Z,100969.38
2022-07-31T15:51:44.443Z,100974.75
2022-07-31T15:54:10.797Z,100976.22
2022-07-31T15:56:37.194Z,100990.31
2022-07-31T15:59:03.695Z,100986.41
2022-07-31T16:01:30.121Z,100979.53
2022-07-31T16:03:56.549Z,100987.03
2022-07-31T16:06:28.159Z,100991.09
2022-07-31T16:08:58.643Z,100983.94
2022-07-31T16:11:24.998Z,100982.59
2022-07-31T16:14:11.399Z,100985.81
2022-07-31T16:16:37.788Z,100977.00
2022-07-31T16:19:04.278Z,100978.78
2022-07-31T16:21:30.632Z,100981.28
2022-07-31T16:23:57.019Z,100980.28
2022-07-31T16:26:23.389Z,100979.88
2022-07-31T16:28:53.873Z,100966.81
2022-07-31T16:31:30.235Z,100962.03
2022-07-31T16:33:57.190Z,100964.41
2022-07-31T16:36:24.648Z,100966.03
2022-07-31T16:39:18.485Z,100964.50
2022-07-31T16:41:38.819Z,100967.66
2022-07-31T16:44:21.232Z,100960.47
2022-07-31T16:46:51.348Z,100963.03
2022-07-31T16:49:35.699Z,100966.22
2022-07-31T16:52:06.441Z,100958.59
2022-07-31T16:54:32.862Z,100951.41
2022-07-31T16:56:59.373Z,100954.91
2022-07-31T16:59:25.745Z,100951.03
2022-07-31T17:01:54.084Z,100954.28
2022-07-31T17:04:27.615Z,100951.25
2022-07-31T17:06:54.704Z,100954.34
2022-07-31T17:09:21.662Z,100955.66
2022-07-31T17:11:52.940Z,100957.63
2022-07-31T17:14:23.077Z,100957.38
2022-07-31T17:16:51.287Z,100952.84
2022-07-31T17:19:42.902Z,100954.41
2022-07-31T17:22:07.450Z,100949.94
2022-07-31T17:24:37.178Z,100955.59
2022-07-31T17:27:06.421Z,100952.94
2022-07-31T17:29:33.036Z,100955.81
2022-07-31T17:31:59.423Z,100958.19
2022-07-31T17:34:26.035Z,100964.66
2022-07-31T17:36:52.379Z,100963.09
2022-07-31T17:39:18.823Z,100960.38
2022-07-31T17:41:45.183Z,100965.19
2022-07-31T17:44:11.684Z,100968.84
2022-07-31T17:46:48.280Z,100966.72
2022-07-31T17:49:19.207Z,100966.41
2022-07-31T17:51:57.672Z,100974.28
2022-07-31T17:54:27.781Z,100966.28
2022-07-31T17:56:54.284Z,100966.88
2022-07-31T17:59:20.707Z,100964.09
2022-07-31T18:01:51.936Z,100955.78
2022-07-31T18:04:19.191Z,100954.31
2022-07-31T18:06:45.632Z,100948.38
2022-07-31T18:09:12.017Z,100955.84
2022-07-31T18:11:38.376Z,100961.56
2022-07-31T18:14:05.811Z,100968.94
2022-07-31T18:16:33.327Z,100974.06
2022-07-31T18:18:59.732Z,100967.66
2022-07-31T18:21:26.161Z,100964.94
2022-07-31T18:23:52.704Z,100959.56
2022-07-31T18:26:19.099Z,100960.38
2022-07-31T18:28:45.479Z,100960.84
2022-07-31T18:31:24.221Z,100962.50
2022-07-31T18:33:58.166Z,100972.81
2022-07-31T18:36:24.519Z,100975.47
2022-07-31T18:38:51.954Z,100965.34
2022-07-31T18:41:18.941Z,100957.84
2022-07-31T18:43:45.328Z,100955.19
2022-07-31T18:46:11.660Z,100954.59
2022-07-31T18:48:38.041Z,100947.81
2022-07-31T18:51:05.495Z,100952.31
2022-07-31T18:53:33.377Z,100945.25
2022-07-31T18:55:59.981Z,100946.72
2022-07-31T18:58:26.647Z,100941.19
2022-07-31T19:00:55.270Z,100950.78
2022-07-31T19:03:22.265Z,100952.22
2022-07-31T19:05:50.158Z,100952.31
2022-07-31T19:08:16.618Z,100951.50
2022-07-31T19:10:43.016Z,100949.13
2022-07-31T19:13:09.415Z,100951.22
2022-07-31T19:15:45.109Z,100940.22
2022-07-31T19:18:11.491Z,100944.81
2022-07-31T19:21:00.153Z,100942.31
2022-07-31T19:23:27.058Z,100933.03
2022-07-31T19:26:02.718Z,100928.25
2022-07-31T19:28:34.663Z,100928.06
2022-07-31T19:31:01.095Z,100928.91
2022-07-31T19:33:27.640Z,100931.63
2022-07-31T19:35:58.888Z,100934.19
2022-07-31T19:38:28.369Z,100932.41
2022-07-31T19:40:55.089Z,100933.34
2022-07-31T19:43:21.454Z,100933.97
2022-07-31T19:45:58.701Z,100927.25
2022-07-31T19:48:36.272Z,100933.97
2022-07-31T19:51:02.672Z,100934.22
2022-07-31T19:53:29.112Z,100927.13
2022-07-31T19:55:55.580Z,100936.63
2022-07-31T19:58:21.953Z,100934.66
2022-07-31T20:00:48.598Z,100931.69
2022-07-31T20:03:15.001Z,100937.66
2022-07-31T20:05:41.441Z,100933.59
2022-07-31T20:08:07.883Z,100929.25
2022-07-31T20:10:34.298Z,100933.59
2022-07-31T20:13:00.714Z,100930.19
2022-07-31T20:15:27.385Z,100931.16
2022-07-31T20:18:26.660Z,100928.16
2022-07-31T20:20:56.908Z,100933.94
2022-07-31T20:23:23.686Z,100938.81
2022-07-31T20:25:50.137Z,100943.59
2022-07-31T20:28:16.561Z,100930.66
2022-07-31T20:30:42.933Z,100935.19
2022-07-31T20:33:11.134Z,100931.84
2022-07-31T20:35:49.450Z,100927.75
2022-07-31T20:38:24.212Z,100932.31
2022-07-31T20:40:55.290Z,100924.22
2022-07-31T20:43:24.461Z,100928.56
2022-07-31T20:45:51.711Z,100919.47
2022-07-31T20:48:18.307Z,100923.88
2022-07-31T20:50:48.297Z,100918.72
2022-07-31T20:53:19.153Z,100926.63
2022-07-31T20:55:47.291Z,100918.84
2022-07-31T20:58:13.976Z,100914.50
2022-07-31T21:00:40.761Z,100912.41
2022-07-31T21:03:07.228Z,100919.94
2022-07-31T21:05:33.566Z,100914.47
2022-07-31T21:08:00.035Z,100900.03
2022-07-31T21:10:29.536Z,100907.41
2022-07-31T21:12:56.480Z,100903.44
2022-07-31T21:15:41.669Z,100900.28
2022-07-31T21:18:09.539Z,100901.75
2022-07-31T21:20:49.690Z,100889.69
2022-07-31T21:23:19.545Z,100893.31
2022-07-31T21:25:46.200Z,100897.00
2022-07-31T21:28:12.967Z,100894.16
2022-07-31T21:30:40.345Z,100897.94
2022-07-31T21:33:07.783Z,100899.66
2022-07-31T21:35:39.696Z,100902.34
2022-07-31T21:38:10.489Z,100892.53
2022-07-31T21:40:39.323Z,100889.00
2022-07-31T21:43:05.941Z,100890.81
2022-07-31T21:45:50.549Z,100889.88
2022-07-31T21:48:22.052Z,100886.75
2022-07-31T21:50:48.688Z,100889.59
2022-07-31T21:53:15.127Z,100887.00
2022-07-31T21:55:41.649Z,100890.56
2022-07-31T21:58:08.934Z,100884.06
2022-07-31T22:00:35.419Z,100886.84
2022-07-31T22:03:02.821Z,100885.72
2022-07-31T22:05:48.605Z,100889.25
2022-07-31T22:08:15.093Z,100886.34
2022-07-31T22:10:41.806Z,100889.34
2022-07-31T22:13:08.673Z,100890.84
2022-07-31T22:15:58.263Z,100890.19
2022-07-31T22:18:21.805Z,100892.03
2022-07-31T22:20:48.497Z,100887.69
2022-07-31T22:23:15.126Z,100883.22
2022-07-31T22:25:42.947Z,100873.56
2022-07-31T22:28:09.566Z,100892.22
2022-07-31T22:30:36.010Z,100892.09
2022-07-31T22:33:04.828Z,100889.31
2022-07-31T22:35:32.370Z,100890.25
2022-07-31T22:37:58.893Z,100889.25
2022-07-31T22:40:25.415Z,100885.19
2022-07-31T22:42:56.557Z,100887.69
2022-07-31T22:45:25.099Z,100879.72
2022-07-31T22:47:51.762Z,100879.81
2022-07-31T22:50:18.395Z,100875.88
2022-07-31T22:52:44.905Z,100882.72
2022-07-31T22:55:11.911Z,100881.81
2022-07-31T22:57:40.700Z,100878.50
2022-07-31T23:00:08.456Z,100874.47
2022-07-31T23:02:34.960Z,100881.94
2022-07-31T23:05:01.365Z,100871.19
2022-07-31T23:07:27.782Z,100884.84
2022-07-31T23:09:54.154Z,100885.44
2022-07-31T23:12:20.515Z,100881.88
2022-07-31T23:14:46.971Z,100886.84
2022-07-31T23:17:23.277Z,100892.84
2022-07-31T23:19:53.727Z,100893.78
2022-07-31T23:22:20.793Z,100884.66
2022-07-31T23:25:00.324Z,100879.19
2022-07-31T23:27:26.758Z,100882.47
2022-07-31T23:29:53.291Z,100877.34
2022-07-31T23:32:19.765Z,100880.47
2022-07-31T23:34:46.111Z,100881.53
2022-07-31T23:37:12.619Z,100879.03
2022-07-31T23:39:39.810Z,100882.34
2022-07-31T23:42:24.848Z,100883.03
2022-07-31T23:44:51.245Z,100878.63
2022-07-31T23:47:18.806Z,100877.63
2022-07-31T23:49:46.334Z,100878.34
2022-07-31T23:52:12.704Z,100879.03
2022-07-31T23:54:39.123Z,100874.69
2022-07-31T23:57:05.489Z,100870.78
2022-07-31T23:59:31.854Z,100869.28
